Millington, TN

3:16 AM CDT en Abril 21, 2015 (GMT -0500)
Lucy | | Change Station
CLOSE
Current Station
Estación meteorológica personal
Location: Millington, TN
Altura: 276 ft
Estaciones meteorológicas cercanas
Aviso en curso: Flood Advisory

Alt 276 ft 35.31 °N, 89.93 °W | Updated 10 minutes ago

Clear
Despejado
45.0 ° F
Sensación térmica 45 ° F
N
0.0
Viento Variable Viento desde SO
Gusts 0.0 mph

Hoy
Alta -- | Baja -- ° F
--% Posibilidad de precipitaciones
Ayer
Alta -- | Baja -- ° F
Precip. -- pul
6:19 AM 7:37 PM
Creciente, 9% visible
Presión 29.97 pul
Visibilidad 10.0 Millas
Nubes Despejado
Vientos helados 45 ° F
Punto de rocío 41 ° F
Humedad 87%
Precipitaciones 0.00 pul
Espesor de la nieve No disponible.
UV 0 de una escala de 12
Polen 7.70 de una escala de 12
Calidad del aire No disponible.
Flu Activity Sporadic
METAR KNQA 210755Z AUTO 00000KT 10SM CLR 07/06 A2997 RMK

More Conditions Fewer Conditions

Presión 29.97 pul
Visibilidad 10.0 Millas
Nubes Despejado
Vientos helados 45 ° F
Punto de rocío 41 ° F
Humedad 87%
Precipitaciones 0.00 pul
Espesor de la nieve No disponible.
UV 0 de una escala de 12
Polen 7.70 de una escala de 12
Calidad del aire No disponible.
Flu Activity Sporadic
METAR KNQA 210755Z AUTO 00000KT 10SM CLR 07/06 A2997 RMK

More Conditions Fewer Conditions

10-Day Weather Forecast

Almanac

Astronomía

Apr. 21, 2015 Salida Puesta
Hora real
Crepúsculo civil
Crepúsculo náutico
Crepúsculo astronómico
Luna
Horas de luz
Horas de luz
Tomorrow will be .
, % of the Moon is Illuminated

Extremos de hoy

Máximos del estado Bajos del estado

Community

WunderPhotos

Upload Photos

1,815,329 ¡fotos cargadas!

WunderBlogs® & News

Nearby

Calidad del aire

  Calidad del aire Índice AQ Contaminante
Not available.

Grosos de nieve

Estación Profundido Altura

Actividad de terremotos

Ciudad Distance Mag. Tiempo y dato
Magnitud mínima muestra es 2,5.

Temperaturas de aguas costeras

Lugar Temperatura

Stations

Estaciones meteorológicas cercanas

Ubicación de la estación Temp. Vientos helados Punto de rocío Humedad Viento Precip. Alt Actualizado Tipo
                   
Flood Advisory
Statement as of 8:52 PM CDT en Abril 20, 2015

The Flood Advisory continues for
the Mississippi River at Memphis
* until Friday April 24.
* At 8 PM Monday the stage was 27.3 feet.
* Flood stage is 34.0 feet.
* Forecast... the river will rise to near 28.4 feet Friday April 24.
* At 28.0 feet... in Arkansas, Dacus Lake Road under the I-55 bridge
begins to flood. Water is encroaching on the levee south of Blue
Lake. The Road to island 40 begins to flood.


Lat... Lon 3539 9025 3539 8995 3533 9005 3513 9004
      3491 9008 3491 9041